createdAt,value
2023-05-22T00:01:56.530Z,97.10
2023-05-22T00:03:58.999Z,97.20
2023-05-22T00:06:02.281Z,97.00
2023-05-22T00:08:04.819Z,97.20
2023-05-22T00:10:07.518Z,97.10
2023-05-22T00:12:09.801Z,97.10
2023-05-22T00:14:13.582Z,97.10
2023-05-22T00:16:16.034Z,97.20
2023-05-22T00:18:19.158Z,97.20
2023-05-22T00:20:21.253Z,97.20
2023-05-22T00:22:24.755Z,97.30
2023-05-22T00:24:26.816Z,97.20
2023-05-22T00:26:28.963Z,97.10
2023-05-22T00:28:31.187Z,97.10
2023-05-22T00:30:33.361Z,97.00
2023-05-22T00:32:35.970Z,97.10
2023-05-22T00:34:38.384Z,97.10
2023-05-22T00:36:40.807Z,96.90
2023-05-22T00:38:44.450Z,96.90
2023-05-22T00:40:46.563Z,96.90
2023-05-22T00:42:48.887Z,96.90
2023-05-22T00:44:50.982Z,97.00
2023-05-22T00:46:53.074Z,96.80
2023-05-22T00:48:55.234Z,96.70
2023-05-22T00:50:59.172Z,96.70
2023-05-22T00:53:02.049Z,96.70
2023-05-22T00:55:06.998Z,96.70
2023-05-22T00:57:09.344Z,96.70
2023-05-22T00:59:12.090Z,96.80
2023-05-22T01:01:14.970Z,96.70
2023-05-22T01:03:18.910Z,96.60
2023-05-22T01:05:21.028Z,96.70
2023-05-22T01:07:23.821Z,96.60
2023-05-22T01:09:26.264Z,96.60
2023-05-22T01:11:41.827Z,96.50
2023-05-22T01:13:53.765Z,96.20
2023-05-22T01:16:05.378Z,96.50
2023-05-22T01:18:19.866Z,96.30
2023-05-22T01:20:25.764Z,96.30
2023-05-22T01:22:42.518Z,96.30
2023-05-22T01:25:00.613Z,96.40
2023-05-22T01:27:28.896Z,96.30
2023-05-22T01:29:47.927Z,96.40
2023-05-22T01:31:55.455Z,96.60
2023-05-22T01:34:00.955Z,96.70
2023-05-22T01:36:07.773Z,96.80
2023-05-22T01:38:11.419Z,96.70
2023-05-22T01:40:14.354Z,96.70
2023-05-22T01:42:16.926Z,96.60
2023-05-22T01:44:18.944Z,96.70
2023-05-22T01:46:21.102Z,96.70
2023-05-22T01:48:24.559Z,96.90
2023-05-22T01:50:26.688Z,96.90
2023-05-22T01:52:35.192Z,96.80
2023-05-22T01:54:42.285Z,96.80
2023-05-22T01:56:48.933Z,97.00
2023-05-22T01:58:56.572Z,96.90
2023-05-22T02:01:00.999Z,96.80
2023-05-22T02:03:08.029Z,96.90
2023-05-22T02:05:14.326Z,96.90
2023-05-22T02:07:19.561Z,96.90
2023-05-22T02:09:23.468Z,96.90
2023-05-22T02:11:28.528Z,96.80
2023-05-22T02:13:30.889Z,96.90
2023-05-22T02:15:33.532Z,96.80
2023-05-22T02:17:40.558Z,96.80
2023-05-22T02:19:43.400Z,96.90
2023-05-22T02:21:46.723Z,97.10
2023-05-22T02:23:48.784Z,97.20
2023-05-22T02:25:52.307Z,97.20
2023-05-22T02:27:54.572Z,97.20
2023-05-22T02:29:56.560Z,97.20
2023-05-22T02:31:58.682Z,97.40
2023-05-22T02:34:00.853Z,97.20
2023-05-22T02:36:03.479Z,97.20
2023-05-22T02:38:06.969Z,97.20
2023-05-22T02:40:12.694Z,97.20
2023-05-22T02:42:14.674Z,97.20
2023-05-22T02:44:16.828Z,97.40
2023-05-22T02:46:18.817Z,97.30
2023-05-22T02:48:20.839Z,97.20
2023-05-22T02:50:22.877Z,97.30
2023-05-22T02:52:25.200Z,97.30
2023-05-22T02:54:28.667Z,97.50
2023-05-22T02:56:31.087Z,97.40
2023-05-22T02:58:34.054Z,97.40
2023-05-22T03:00:37.957Z,97.60
2023-05-22T03:02:40.329Z,97.70
2023-05-22T03:04:42.470Z,97.60
2023-05-22T03:06:46.360Z,97.50
2023-05-22T03:08:48.771Z,97.70
2023-05-22T03:10:52.217Z,97.50
2023-05-22T03:12:54.219Z,97.60
2023-05-22T03:14:56.281Z,97.80
2023-05-22T03:16:58.928Z,97.80
2023-05-22T03:19:10.485Z,97.80
2023-05-22T03:21:12.631Z,97.90
2023-05-22T03:23:14.783Z,98.00
2023-05-22T03:25:17.072Z,98.40
2023-05-22T03:27:20.429Z,98.10
2023-05-22T03:29:22.712Z,98.10
2023-05-22T03:31:25.165Z,97.90
2023-05-22T03:33:27.285Z,97.90
2023-05-22T03:35:29.599Z,98.10
2023-05-22T03:37:31.756Z,98.00
2023-05-22T03:39:33.748Z,98.30
2023-05-22T03:41:36.911Z,98.00
2023-05-22T03:43:44.765Z,98.00
2023-05-22T03:45:47.175Z,98.00
2023-05-22T03:47:49.437Z,98.10
2023-05-22T03:49:51.515Z,98.10
2023-05-22T03:51:53.509Z,98.20
2023-05-22T03:53:55.510Z,98.20
2023-05-22T03:55:57.980Z,98.30
2023-05-22T03:58:00.008Z,98.20
2023-05-22T04:00:09.595Z,98.40
2023-05-22T04:02:13.133Z,98.50
2023-05-22T04:04:16.470Z,98.60
2023-05-22T04:06:21.933Z,98.70
2023-05-22T04:08:24.091Z,98.80
2023-05-22T04:10:26.071Z,98.60
2023-05-22T04:12:28.075Z,98.80
2023-05-22T04:14:30.142Z,98.60
2023-05-22T04:16:33.981Z,98.60
2023-05-22T04:18:36.121Z,98.50
2023-05-22T04:20:39.668Z,98.70
2023-05-22T04:22:41.821Z,98.60
2023-05-22T04:24:43.960Z,98.50
2023-05-22T04:26:46.102Z,98.70
2023-05-22T04:28:48.106Z,98.70
2023-05-22T04:30:50.539Z,98.70
2023-05-22T04:32:54.399Z,98.70
2023-05-22T04:34:58.387Z,98.60
2023-05-22T04:37:00.558Z,98.40
2023-05-22T04:39:05.096Z,98.50
2023-05-22T04:41:08.722Z,98.50
2023-05-22T04:43:13.997Z,98.40
2023-05-22T04:45:16.296Z,98.20
2023-05-22T04:47:18.657Z,98.40
2023-05-22T04:49:22.093Z,98.30
2023-05-22T04:51:25.436Z,98.30
2023-05-22T04:53:27.629Z,98.30
2023-05-22T04:55:29.985Z,98.60
2023-05-22T04:57:32.116Z,98.60
2023-05-22T04:59:40.980Z,98.30
2023-05-22T05:01:47.786Z,98.30
2023-05-22T05:03:50.062Z,98.30
2023-05-22T05:05:53.447Z,98.50
2023-05-22T05:07:55.729Z,98.50
2023-05-22T05:09:57.804Z,98.50
2023-05-22T05:11:59.969Z,98.40
2023-05-22T05:14:01.969Z,98.30
2023-05-22T05:16:04.187Z,98.60
2023-05-22T05:18:06.460Z,98.20
2023-05-22T05:20:10.484Z,98.10
2023-05-22T05:22:13.966Z,98.30
2023-05-22T05:24:17.833Z,98.60
2023-05-22T05:26:21.915Z,98.50
2023-05-22T05:28:24.149Z,98.20
2023-05-22T05:30:26.431Z,98.40
2023-05-22T05:32:28.746Z,98.10
2023-05-22T05:34:31.345Z,98.10
2023-05-22T05:36:33.576Z,98.20
2023-05-22T05:38:36.969Z,97.90
2023-05-22T05:40:39.463Z,98.00
2023-05-22T05:42:42.659Z,98.10
2023-05-22T05:44:44.650Z,97.80
2023-05-22T05:46:49.776Z,98.00
2023-05-22T05:48:52.835Z,97.70
2023-05-22T05:50:54.873Z,97.80
2023-05-22T05:52:57.180Z,97.70
2023-05-22T05:55:00.973Z,97.50
2023-05-22T05:57:02.975Z,97.50
2023-05-22T05:59:05.073Z,97.30
2023-05-22T06:01:07.122Z,97.10
2023-05-22T06:03:10.474Z,97.20
2023-05-22T06:05:13.463Z,97.10
2023-05-22T06:07:16.361Z,97.20
2023-05-22T06:09:18.322Z,97.00
2023-05-22T06:11:22.563Z,96.80
2023-05-22T06:13:24.603Z,96.90
2023-05-22T06:15:27.049Z,96.70
2023-05-22T06:17:29.195Z,96.70
2023-05-22T06:19:31.625Z,96.70
2023-05-22T06:21:33.801Z,96.70
2023-05-22T06:23:35.851Z,96.60
2023-05-22T06:25:39.838Z,96.40
2023-05-22T06:27:43.618Z,96.60
2023-05-22T06:29:45.625Z,96.40
2023-05-22T06:31:47.637Z,96.30
2023-05-22T06:33:49.973Z,96.10
2023-05-22T06:35:52.155Z,96.10
2023-05-22T06:37:54.648Z,96.10
2023-05-22T06:39:56.679Z,96.20
2023-05-22T06:41:58.759Z,95.80
2023-05-22T06:44:02.327Z,95.90
2023-05-22T06:46:05.445Z,96.10
2023-05-22T06:48:07.755Z,95.70
2023-05-22T06:50:11.879Z,96.00
2023-05-22T06:52:14.273Z,96.00
2023-05-22T06:54:16.393Z,95.90
2023-05-22T06:56:19.073Z,95.80
2023-05-22T06:58:21.109Z,95.70
2023-05-22T07:00:25.256Z,95.40
2023-05-22T07:02:27.351Z,95.10
2023-05-22T07:04:29.347Z,95.50
2023-05-22T07:06:38.783Z,95.10
2023-05-22T07:08:42.007Z,95.00
2023-05-22T07:10:44.138Z,94.60
2023-05-22T07:12:46.238Z,94.60
2023-05-22T07:14:48.495Z,94.90
2023-05-22T07:16:51.904Z,94.30
2023-05-22T07:18:54.093Z,94.70
2023-05-22T07:20:56.184Z,94.90
2023-05-22T07:22:58.536Z,94.40
2023-05-22T07:25:00.584Z,94.50
2023-05-22T07:27:04.344Z,94.60
2023-05-22T07:29:06.515Z,94.70
2023-05-22T07:31:08.574Z,94.30
2023-05-22T07:33:12.583Z,94.10
2023-05-22T07:35:14.649Z,94.10
2023-05-22T07:37:16.789Z,93.90
2023-05-22T07:39:18.813Z,93.70
2023-05-22T07:41:22.002Z,94.10
2023-05-22T07:43:24.055Z,93.70
2023-05-22T07:45:26.811Z,93.30
2023-05-22T07:47:28.852Z,93.30
2023-05-22T07:49:32.524Z,93.30
2023-05-22T07:51:34.559Z,93.20
2023-05-22T07:53:36.683Z,93.40
2023-05-22T07:55:39.656Z,93.00
2023-05-22T07:57:43.624Z,92.60
2023-05-22T07:59:45.654Z,92.20
2023-05-22T08:01:47.970Z,92.30
2023-05-22T08:03:50.347Z,92.30
2023-05-22T08:05:54.399Z,92.30
2023-05-22T08:07:56.656Z,91.90
2023-05-22T08:09:58.763Z,92.00
2023-05-22T08:12:01.088Z,91.80
2023-05-22T08:14:03.176Z,92.10
2023-05-22T08:16:06.555Z,91.80
2023-05-22T08:18:08.674Z,91.60
2023-05-22T08:20:12.256Z,91.90
2023-05-22T08:22:16.030Z,91.60
2023-05-22T08:24:18.150Z,91.50
2023-05-22T08:26:20.592Z,91.30
2023-05-22T08:28:22.788Z,91.30
2023-05-22T08:30:25.099Z,91.20
2023-05-22T08:32:28.692Z,91.40
2023-05-22T08:34:32.921Z,91.30
2023-05-22T08:36:35.489Z,91.30
2023-05-22T08:38:39.248Z,91.40
2023-05-22T08:40:46.231Z,91.40
2023-05-22T08:42:51.443Z,91.40
2023-05-22T08:44:55.364Z,91.50
2023-05-22T08:47:00.184Z,91.30
2023-05-22T08:49:03.536Z,91.30
2023-05-22T08:51:06.154Z,91.70
2023-05-22T08:53:11.421Z,92.10
2023-05-22T08:55:14.970Z,92.00
2023-05-22T08:57:18.164Z,91.40
2023-05-22T08:59:20.805Z,91.50
2023-05-22T09:01:23.857Z,91.50
2023-05-22T09:03:32.776Z,91.80
2023-05-22T09:05:36.327Z,91.50
2023-05-22T09:07:40.758Z,91.50
2023-05-22T09:09:43.030Z,92.20
2023-05-22T09:11:46.706Z,91.80
2023-05-22T09:13:49.902Z,91.70
2023-05-22T09:15:52.130Z,92.10
2023-05-22T09:17:54.502Z,92.00
2023-05-22T09:20:00.005Z,91.80
2023-05-22T09:22:03.415Z,91.90
2023-05-22T09:24:08.185Z,92.00
2023-05-22T09:26:10.411Z,91.40
2023-05-22T09:28:14.419Z,91.40
2023-05-22T09:30:18.024Z,91.80
2023-05-22T09:32:20.482Z,91.50
2023-05-22T09:34:28.991Z,91.70
2023-05-22T09:36:33.075Z,91.70
2023-05-22T09:38:35.400Z,91.50
2023-05-22T09:40:38.776Z,91.40
2023-05-22T09:42:47.624Z,91.30
2023-05-22T09:44:52.025Z,91.60
2023-05-22T09:46:55.013Z,91.50
2023-05-22T09:48:57.114Z,91.40
2023-05-22T09:51:00.310Z,91.10
2023-05-22T09:53:03.626Z,91.20
2023-05-22T09:55:07.291Z,91.00
2023-05-22T09:57:13.951Z,91.00
2023-05-22T09:59:22.453Z,90.90
2023-05-22T10:01:26.852Z,90.80
2023-05-22T10:03:31.468Z,91.00
2023-05-22T10:05:34.010Z,90.80
2023-05-22T10:07:41.116Z,90.70
2023-05-22T10:09:44.400Z,90.50
2023-05-22T10:11:47.423Z,90.90
2023-05-22T10:13:50.903Z,90.50
2023-05-22T10:15:54.408Z,90.60
2023-05-22T10:17:58.898Z,90.80
2023-05-22T10:20:02.203Z,90.40
2023-05-22T10:22:04.984Z,90.40
2023-05-22T10:24:07.584Z,90.60
2023-05-22T10:26:11.282Z,90.90
2023-05-22T10:28:21.542Z,90.70
2023-05-22T10:30:31.476Z,90.50
2023-05-22T10:32:40.553Z,90.60
2023-05-22T10:34:51.896Z,90.60
2023-05-22T10:37:17.129Z,90.50
2023-05-22T10:39:37.432Z,90.60
2023-05-22T10:41:40.532Z,90.60
2023-05-22T10:43:43.427Z,90.80
2023-05-22T10:45:47.768Z,90.80
2023-05-22T10:47:49.869Z,90.90
2023-05-22T10:50:04.467Z,91.00
2023-05-22T10:52:08.644Z,91.10
2023-05-22T10:54:10.803Z,91.00
2023-05-22T10:56:14.084Z,90.90
2023-05-22T10:58:16.597Z,90.90
2023-05-22T11:00:19.471Z,91.00
2023-05-22T11:02:25.528Z,91.00
2023-05-22T11:04:27.834Z,91.00
2023-05-22T11:06:32.605Z,90.90
2023-05-22T11:08:38.295Z,91.10
2023-05-22T11:10:53.355Z,91.30
2023-05-22T11:13:03.489Z,91.20
2023-05-22T11:15:07.203Z,91.60
2023-05-22T11:17:12.869Z,91.30
2023-05-22T11:19:23.474Z,91.20
2023-05-22T11:21:28.880Z,91.10
2023-05-22T11:23:33.376Z,90.80
2023-05-22T11:25:37.437Z,90.80
2023-05-22T11:27:41.413Z,90.60
2023-05-22T11:29:44.544Z,90.70
2023-05-22T11:31:47.634Z,90.30
2023-05-22T11:33:50.054Z,90.50
2023-05-22T11:35:54.212Z,90.50
2023-05-22T11:37:56.718Z,90.60
2023-05-22T11:40:04.720Z,90.50
2023-05-22T11:42:07.139Z,90.70
2023-05-22T11:44:09.691Z,90.60
2023-05-22T11:46:12.487Z,90.70
2023-05-22T11:48:15.725Z,90.70
2023-05-22T11:50:29.289Z,90.60
2023-05-22T11:52:38.059Z,90.80
2023-05-22T11:54:40.111Z,90.50
2023-05-22T11:56:43.802Z,90.30
2023-05-22T11:58:47.593Z,90.20
2023-05-22T12:00:49.540Z,89.90
2023-05-22T12:02:51.660Z,89.10
2023-05-22T12:04:57.259Z,89.50
2023-05-22T12:06:59.677Z,89.90
2023-05-22T12:09:01.952Z,89.20
2023-05-22T12:11:05.652Z,89.50
2023-05-22T12:13:09.090Z,88.80
2023-05-22T12:15:11.634Z,89.30
2023-05-22T12:17:14.155Z,89.50
2023-05-22T12:19:17.573Z,89.60
2023-05-22T12:21:24.497Z,88.90
2023-05-22T12:23:27.855Z,89.00
2023-05-22T12:25:37.109Z,88.90
2023-05-22T12:27:39.198Z,88.40
2023-05-22T12:29:43.276Z,88.90
2023-05-22T12:31:48.375Z,88.60
2023-05-22T12:33:54.164Z,88.70
2023-05-22T12:35:58.502Z,88.70
2023-05-22T12:38:00.827Z,88.20
2023-05-22T12:40:04.382Z,88.00
2023-05-22T12:42:08.706Z,87.40
2023-05-22T12:44:11.216Z,87.60
2023-05-22T12:46:14.625Z,87.70
2023-05-22T12:48:16.804Z,87.80
2023-05-22T12:50:18.925Z,87.30
2023-05-22T12:52:21.120Z,88.20
2023-05-22T12:54:23.504Z,89.00
2023-05-22T12:56:25.692Z,88.80
2023-05-22T12:58:27.789Z,89.00
2023-05-22T13:00:29.932Z,89.50
2023-05-22T13:02:33.927Z,89.40
2023-05-22T13:04:36.297Z,89.60
2023-05-22T13:06:38.394Z,89.90
2023-05-22T13:08:40.479Z,90.20
2023-05-22T13:10:42.462Z,90.10
2023-05-22T13:12:46.876Z,90.20
2023-05-22T13:14:49.037Z,90.50
2023-05-22T13:16:51.313Z,91.00
2023-05-22T13:18:54.692Z,90.40
2023-05-22T13:20:57.686Z,90.50
2023-05-22T13:22:59.790Z,90.30
2023-05-22T13:25:01.823Z,90.50
2023-05-22T13:27:03.999Z,90.10
2023-05-22T13:29:06.544Z,90.30
2023-05-22T13:31:08.610Z,89.80
2023-05-22T13:33:11.081Z,90.00
2023-05-22T13:35:14.575Z,90.00
2023-05-22T13:37:18.641Z,89.30
2023-05-22T13:39:20.694Z,89.90
2023-05-22T13:41:22.780Z,90.30
2023-05-22T13:43:24.841Z,90.50
2023-05-22T13:45:27.720Z,90.50
2023-05-22T13:47:30.020Z,90.60
2023-05-22T13:49:32.045Z,90.60
2023-05-22T13:51:35.810Z,90.70
2023-05-22T13:53:39.496Z,90.70
2023-05-22T13:55:41.807Z,91.20
2023-05-22T13:57:43.956Z,91.10
2023-05-22T13:59:46.170Z,91.30
2023-05-22T14:01:48.246Z,91.20
2023-05-22T14:03:50.624Z,91.40
2023-05-22T14:05:52.778Z,91.40
2023-05-22T14:07:56.860Z,91.50
2023-05-22T14:10:01.049Z,91.40
2023-05-22T14:12:03.735Z,91.40
2023-05-22T14:14:05.852Z,91.30
2023-05-22T14:16:08.177Z,91.40
2023-05-22T14:18:11.195Z,91.60
2023-05-22T14:20:13.453Z,91.90
2023-05-22T14:22:15.484Z,92.00
2023-05-22T14:24:19.157Z,92.00
2023-05-22T14:26:21.408Z,91.80
2023-05-22T14:28:24.338Z,91.70
2023-05-22T14:30:26.360Z,91.70
2023-05-22T14:32:28.416Z,91.50
2023-05-22T14:34:30.830Z,91.50
2023-05-22T14:36:32.868Z,91.30
2023-05-22T14:38:35.003Z,91.40
2023-05-22T14:40:38.384Z,91.50
2023-05-22T14:42:40.337Z,91.50
2023-05-22T14:44:42.686Z,91.40
2023-05-22T14:46:44.905Z,91.40
2023-05-22T14:48:47.014Z,91.40
2023-05-22T14:50:49.020Z,91.40
2023-05-22T14:52:51.585Z,91.50
2023-05-22T14:54:54.197Z,91.30
2023-05-22T14:56:57.574Z,91.50
2023-05-22T14:58:59.517Z,91.40
2023-05-22T15:01:01.502Z,91.30
2023-05-22T15:03:04.215Z,91.70
2023-05-22T15:05:07.121Z,91.60
2023-05-22T15:07:09.281Z,91.60
2023-05-22T15:09:11.715Z,91.50
2023-05-22T15:11:13.744Z,91.40
2023-05-22T15:13:17.193Z,91.60
2023-05-22T15:15:20.831Z,91.50
2023-05-22T15:17:22.938Z,91.60
2023-05-22T15:19:25.524Z,91.70
2023-05-22T15:21:28.173Z,91.70
2023-05-22T15:23:32.192Z,91.90
2023-05-22T15:25:36.445Z,92.00
2023-05-22T15:27:39.445Z,91.70
2023-05-22T15:29:42.827Z,91.50
2023-05-22T15:31:44.923Z,91.50
2023-05-22T15:33:47.012Z,91.30
2023-05-22T15:35:49.059Z,91.30
2023-05-22T15:37:51.076Z,91.30
2023-05-22T15:39:53.123Z,91.20
2023-05-22T15:42:05.704Z,91.30
2023-05-22T15:44:11.440Z,91.10
2023-05-22T15:46:16.777Z,91.30
2023-05-22T15:48:19.038Z,91.50
2023-05-22T15:50:21.276Z,91.80
2023-05-22T15:52:24.530Z,91.80
2023-05-22T15:54:26.720Z,91.70
2023-05-22T15:56:28.775Z,91.70
2023-05-22T15:58:31.463Z,91.80
2023-05-22T16:00:38.529Z,91.80
2023-05-22T16:02:42.186Z,91.70
2023-05-22T16:04:44.221Z,91.60
2023-05-22T16:06:46.590Z,91.70
2023-05-22T16:08:48.592Z,91.70
2023-05-22T16:10:50.730Z,91.70
2023-05-22T16:12:52.864Z,91.70
2023-05-22T16:15:00.320Z,91.70
2023-05-22T16:17:03.885Z,92.00
2023-05-22T16:19:07.325Z,92.10
2023-05-22T16:21:09.411Z,92.30
2023-05-22T16:23:11.882Z,92.50
2023-05-22T16:25:15.725Z,92.60
2023-05-22T16:27:17.789Z,92.70
2023-05-22T16:29:20.996Z,92.70
2023-05-22T16:31:23.140Z,92.70
2023-05-22T16:33:25.219Z,92.60
2023-05-22T16:35:29.470Z,92.50
2023-05-22T16:37:31.545Z,92.50
2023-05-22T16:39:33.920Z,92.40
2023-05-22T16:41:37.144Z,92.50
2023-05-22T16:43:39.418Z,92.20
2023-05-22T16:45:46.435Z,92.30
2023-05-22T16:47:48.626Z,92.30
2023-05-22T16:49:50.774Z,92.40
2023-05-22T16:51:54.154Z,92.50
2023-05-22T16:53:56.208Z,92.50
2023-05-22T16:55:59.846Z,92.40
2023-05-22T16:58:01.844Z,92.50
2023-05-22T17:00:05.917Z,92.60
2023-05-22T17:02:09.135Z,92.80
2023-05-22T17:04:14.757Z,93.00
2023-05-22T17:06:19.501Z,93.10
2023-05-22T17:08:28.074Z,93.20
2023-05-22T17:10:30.223Z,93.00
2023-05-22T17:12:32.381Z,93.00
2023-05-22T17:14:34.683Z,92.90
2023-05-22T17:16:37.830Z,93.00
2023-05-22T17:18:40.455Z,92.90
2023-05-22T17:20:44.253Z,92.90
2023-05-22T17:22:46.265Z,93.00
2023-05-22T17:24:49.792Z,93.10
2023-05-22T17:26:52.452Z,93.00
2023-05-22T17:28:54.697Z,93.00
2023-05-22T17:30:56.653Z,93.10
2023-05-22T17:32:58.667Z,93.50
2023-05-22T17:35:01.946Z,93.20
2023-05-22T17:37:04.210Z,93.40
2023-05-22T17:39:06.616Z,93.40
2023-05-22T17:41:10.309Z,93.60
2023-05-22T17:43:12.437Z,93.80
2023-05-22T17:45:14.801Z,94.00
2023-05-22T17:47:18.252Z,94.00
2023-05-22T17:49:20.337Z,94.10
2023-05-22T17:51:22.646Z,94.00
2023-05-22T17:53:26.405Z,94.10
2023-05-22T17:55:28.424Z,94.00
2023-05-22T17:57:32.272Z,94.00
2023-05-22T17:59:34.273Z,93.90
2023-05-22T18:01:36.394Z,93.90
2023-05-22T18:03:38.760Z,93.80
2023-05-22T18:05:40.960Z,94.00
2023-05-22T18:07:44.199Z,94.00
2023-05-22T18:09:46.407Z,94.00
2023-05-22T18:11:51.913Z,93.90
2023-05-22T18:13:55.296Z,94.00
2023-05-22T18:16:00.811Z,94.10
2023-05-22T18:18:03.018Z,94.10
2023-05-22T18:20:07.693Z,94.00
2023-05-22T18:22:09.750Z,94.10
2023-05-22T18:24:13.432Z,94.20
2023-05-22T18:26:15.528Z,94.30
2023-05-22T18:28:19.845Z,94.30
2023-05-22T18:30:23.287Z,94.40
2023-05-22T18:32:25.423Z,94.50
2023-05-22T18:34:27.772Z,94.70
2023-05-22T18:36:29.789Z,94.90
2023-05-22T18:38:31.879Z,94.90
2023-05-22T18:40:33.939Z,95.10
2023-05-22T18:42:36.094Z,95.30
2023-05-22T18:44:38.379Z,95.50
2023-05-22T18:46:41.852Z,95.70
2023-05-22T18:48:43.937Z,96.00
2023-05-22T18:50:45.979Z,96.00
2023-05-22T18:52:47.986Z,96.20
2023-05-22T18:54:50.154Z,96.30
2023-05-22T18:56:52.145Z,96.30
2023-05-22T18:58:54.102Z,96.40
2023-05-22T19:00:56.187Z,96.60
2023-05-22T19:02:59.607Z,96.50
2023-05-22T19:05:01.982Z,96.70
2023-05-22T19:07:04.354Z,96.60
2023-05-22T19:09:06.383Z,96.70
2023-05-22T19:11:08.460Z,96.70
2023-05-22T19:13:11.000Z,96.90
2023-05-22T19:15:13.160Z,96.90
2023-05-22T19:17:15.988Z,97.00
2023-05-22T19:19:19.743Z,97.00
2023-05-22T19:21:22.327Z,97.10
2023-05-22T19:23:24.586Z,97.30
2023-05-22T19:25:26.682Z,97.30
2023-05-22T19:27:28.696Z,97.40
2023-05-22T19:29:30.831Z,97.50
2023-05-22T19:31:32.995Z,97.60
2023-05-22T19:33:35.294Z,97.90
2023-05-22T19:35:38.848Z,98.10
2023-05-22T19:37:41.174Z,98.20
2023-05-22T19:39:43.253Z,98.20
2023-05-22T19:41:47.451Z,98.40
2023-05-22T19:43:51.200Z,98.20
2023-05-22T19:45:54.086Z,98.40
2023-05-22T19:47:56.276Z,98.20
2023-05-22T19:49:58.522Z,98.40
2023-05-22T19:52:02.078Z,98.30
2023-05-22T19:54:04.746Z,98.40
2023-05-22T19:56:06.836Z,98.40
2023-05-22T19:58:09.004Z,98.50
2023-05-22T20:00:12.687Z,98.80
2023-05-22T20:02:14.706Z,98.70
2023-05-22T20:04:16.836Z,98.70
2023-05-22T20:06:19.717Z,98.60
2023-05-22T20:08:25.278Z,98.80
2023-05-22T20:10:27.413Z,98.80
2023-05-22T20:12:29.371Z,98.90
2023-05-22T20:14:31.422Z,99.00
2023-05-22T20:16:33.719Z,99.10
2023-05-22T20:18:35.922Z,99.10
2023-05-22T20:20:37.965Z,99.00
2023-05-22T20:22:40.014Z,99.10
2023-05-22T20:24:43.411Z,99.10
2023-05-22T20:26:45.540Z,99.10
2023-05-22T20:28:47.643Z,99.10
2023-05-22T20:30:49.925Z,99.20
2023-05-22T20:32:52.063Z,99.20
2023-05-22T20:34:55.472Z,99.20
2023-05-22T20:36:58.398Z,99.30
2023-05-22T20:39:00.599Z,99.20
2023-05-22T20:41:07.713Z,99.20
2023-05-22T20:43:13.840Z,99.20
2023-05-22T20:45:16.596Z,99.20
2023-05-22T20:47:18.699Z,99.40
2023-05-22T20:49:21.249Z,99.50
2023-05-22T20:51:31.679Z,99.50
2023-05-22T20:53:33.718Z,99.40
2023-05-22T20:55:36.147Z,99.40
2023-05-22T20:57:39.648Z,99.40
2023-05-22T20:59:41.787Z,99.70
2023-05-22T21:01:44.738Z,99.30
2023-05-22T21:03:47.938Z,99.30
2023-05-22T21:05:50.382Z,99.30
2023-05-22T21:07:52.409Z,99.20
2023-05-22T21:09:54.491Z,99.30
2023-05-22T21:11:56.554Z,99.20
2023-05-22T21:14:00.126Z,99.20
2023-05-22T21:16:02.211Z,99.10
2023-05-22T21:18:04.368Z,99.10
2023-05-22T21:20:07.054Z,99.00
2023-05-22T21:22:09.489Z,99.00
2023-05-22T21:24:11.667Z,99.10
2023-05-22T21:26:13.678Z,99.00
2023-05-22T21:28:16.082Z,99.00
2023-05-22T21:30:20.559Z,99.00
2023-05-22T21:32:22.692Z,98.90
2023-05-22T21:34:24.851Z,98.90
2023-05-22T21:36:26.859Z,99.00
2023-05-22T21:38:28.823Z,99.10
2023-05-22T21:40:30.931Z,99.00
2023-05-22T21:42:45.132Z,99.10
2023-05-22T21:44:49.702Z,99.00
2023-05-22T21:46:53.302Z,98.90
2023-05-22T21:48:56.022Z,99.00
2023-05-22T21:50:58.787Z,98.80
2023-05-22T21:53:01.078Z,98.90
2023-05-22T21:55:04.007Z,99.00
2023-05-22T21:57:06.587Z,98.90
2023-05-22T21:59:08.646Z,99.10
2023-05-22T22:01:10.963Z,99.10
2023-05-22T22:03:14.449Z,99.00
2023-05-22T22:05:18.584Z,99.00
2023-05-22T22:07:20.912Z,98.90
2023-05-22T22:09:22.980Z,98.90
2023-05-22T22:11:25.068Z,98.80
2023-05-22T22:13:27.099Z,98.90
2023-05-22T22:15:29.208Z,98.80
2023-05-22T22:17:31.188Z,98.80
2023-05-22T22:19:36.123Z,99.00
2023-05-22T22:21:38.396Z,98.80
2023-05-22T22:23:40.471Z,98.90
2023-05-22T22:25:42.457Z,99.00
2023-05-22T22:27:44.536Z,99.10
2023-05-22T22:29:46.951Z,99.00
2023-05-22T22:31:49.068Z,98.90
2023-05-22T22:33:51.165Z,99.00
2023-05-22T22:35:54.557Z,98.90
2023-05-22T22:37:56.587Z,99.00
2023-05-22T22:39:58.622Z,99.00
2023-05-22T22:42:04.285Z,98.90
2023-05-22T22:44:06.335Z,99.00
2023-05-22T22:46:09.108Z,99.00
2023-05-22T22:48:11.445Z,99.10
2023-05-22T22:50:13.763Z,99.30
2023-05-22T22:52:17.116Z,99.30
2023-05-22T22:54:19.216Z,99.20
2023-05-22T22:56:21.688Z,99.30
2023-05-22T22:58:23.791Z,99.30
2023-05-22T23:00:25.935Z,99.50
2023-05-22T23:02:27.935Z,99.50
2023-05-22T23:04:30.020Z,99.40
2023-05-22T23:06:33.022Z,99.50
2023-05-22T23:08:36.636Z,99.60
2023-05-22T23:10:38.725Z,99.50
2023-05-22T23:12:40.857Z,99.90
2023-05-22T23:14:44.173Z,99.60
2023-05-22T23:16:46.368Z,99.60
2023-05-22T23:18:48.376Z,99.70
2023-05-22T23:20:51.285Z,99.70
2023-05-22T23:22:53.416Z,99.70
2023-05-22T23:24:57.684Z,99.70
2023-05-22T23:27:00.104Z,99.60
2023-05-22T23:29:02.244Z,99.60
2023-05-22T23:31:04.234Z,99.80
2023-05-22T23:33:06.444Z,99.90
2023-05-22T23:35:10.830Z,99.80
2023-05-22T23:37:12.872Z,99.90
2023-05-22T23:39:15.028Z,99.90
2023-05-22T23:41:18.683Z,99.90
2023-05-22T23:43:20.973Z,99.90
2023-05-22T23:45:22.994Z,99.90
2023-05-22T23:47:25.037Z,99.90
2023-05-22T23:49:27.009Z,99.90
2023-05-22T23:51:29.277Z,99.90
2023-05-22T23:53:31.371Z,99.90
2023-05-22T23:55:33.548Z,99.90
2023-05-22T23:57:36.961Z,99.90
2023-05-22T23:59:39.181Z,99.90
